createdAt,value
2023-02-13T00:00:51.596Z,24.83
2023-02-13T00:03:40.137Z,24.93
2023-02-13T00:06:30.238Z,25.00
2023-02-13T00:09:18.765Z,22.17
2023-02-13T00:12:08.541Z,24.87
2023-02-13T00:14:57.047Z,24.50
2023-02-13T00:17:45.550Z,23.97
2023-02-13T00:20:34.107Z,25.63
2023-02-13T00:23:24.202Z,24.13
2023-02-13T00:26:14.024Z,23.80
2023-02-13T00:29:02.495Z,23.50
2023-02-13T00:31:51.058Z,23.33
2023-02-13T00:34:39.600Z,22.10
2023-02-13T00:37:28.057Z,22.70
2023-02-13T00:40:17.882Z,22.63
2023-02-13T00:43:06.315Z,22.97
2023-02-13T00:45:54.832Z,21.17
2023-02-13T00:48:43.422Z,21.57
2023-02-13T00:51:31.938Z,21.20
2023-02-13T00:54:20.490Z,23.20
2023-02-13T00:57:10.297Z,22.33
2023-02-13T00:59:58.815Z,20.90
2023-02-13T01:02:47.777Z,22.67
2023-02-13T01:05:36.870Z,20.97
2023-02-13T01:08:28.227Z,22.23
2023-02-13T01:11:16.776Z,22.23
2023-02-13T01:14:06.886Z,21.20
2023-02-13T01:16:56.551Z,21.60
2023-02-13T01:19:45.094Z,19.13
2023-02-13T01:22:33.716Z,20.57
2023-02-13T01:25:23.087Z,22.83
2023-02-13T01:28:11.602Z,20.70
2023-02-13T01:31:02.291Z,23.40
2023-02-13T01:33:51.224Z,20.90
2023-02-13T01:36:40.118Z,22.63
2023-02-13T01:39:28.782Z,24.07
2023-02-13T01:42:18.562Z,22.40
2023-02-13T01:45:14.751Z,21.93
2023-02-13T01:48:06.979Z,22.63
2023-02-13T01:50:57.651Z,23.60
2023-02-13T01:53:49.214Z,22.70
2023-02-13T01:56:39.956Z,20.73
2023-02-13T01:59:32.213Z,22.43
2023-02-13T02:02:21.136Z,22.00
2023-02-13T02:05:11.534Z,21.93
2023-02-13T02:08:01.462Z,25.07
2023-02-13T02:10:49.973Z,22.90
2023-02-13T02:13:38.766Z,22.50
2023-02-13T02:16:27.513Z,22.00
2023-02-13T02:19:22.962Z,23.70
2023-02-13T02:22:26.779Z,22.00
2023-02-13T02:25:31.771Z,22.50
2023-02-13T02:28:41.193Z,22.00
2023-02-13T02:31:58.953Z,22.17
2023-02-13T02:34:54.352Z,22.97
2023-02-13T02:38:00.624Z,21.10
2023-02-13T02:41:01.505Z,22.57
2023-02-13T02:43:56.344Z,19.97
2023-02-13T02:47:15.842Z,22.23
2023-02-13T02:50:17.655Z,21.50
2023-02-13T02:53:11.070Z,23.10
2023-02-13T02:56:05.800Z,24.20
2023-02-13T02:59:15.136Z,22.53
2023-02-13T03:02:23.049Z,20.93
2023-02-13T03:05:37.673Z,22.03
2023-02-13T03:08:40.202Z,21.53
2023-02-13T03:11:46.516Z,20.97
2023-02-13T03:14:35.188Z,22.53
2023-02-13T03:17:43.010Z,22.80
2023-02-13T03:20:55.736Z,21.70
2023-02-13T03:23:52.187Z,22.87
2023-02-13T03:26:50.470Z,24.70
2023-02-13T03:30:02.798Z,21.53
2023-02-13T03:32:59.400Z,23.17
2023-02-13T03:36:08.746Z,22.30
2023-02-13T03:39:00.261Z,24.30
2023-02-13T03:41:51.778Z,24.83
2023-02-13T03:44:44.457Z,24.27
2023-02-13T03:47:33.006Z,24.17
2023-02-13T03:50:21.987Z,22.93
2023-02-13T03:53:12.416Z,24.63
2023-02-13T03:56:19.495Z,22.30
2023-02-13T03:59:17.007Z,24.00
2023-02-13T04:02:09.612Z,23.93
2023-02-13T04:05:01.456Z,24.27
2023-02-13T04:07:51.333Z,20.80
2023-02-13T04:10:46.624Z,22.60
2023-02-13T04:13:36.489Z,23.20
2023-02-13T04:16:29.819Z,23.37
2023-02-13T04:19:18.474Z,21.90
2023-02-13T04:22:06.942Z,21.70
2023-02-13T04:24:56.864Z,22.27
2023-02-13T04:27:45.411Z,21.97
2023-02-13T04:30:34.377Z,21.73
2023-02-13T04:33:22.878Z,19.80
2023-02-13T04:36:11.397Z,22.53
2023-02-13T04:38:59.931Z,20.80
2023-02-13T04:41:49.723Z,19.50
2023-02-13T04:44:38.201Z,20.53
2023-02-13T04:47:26.843Z,20.13
2023-02-13T04:50:15.346Z,20.63
2023-02-13T04:53:03.814Z,20.73
2023-02-13T04:55:53.136Z,21.40
2023-02-13T04:58:42.955Z,20.70
2023-02-13T05:01:31.642Z,22.23
2023-02-13T05:04:20.369Z,21.17
2023-02-13T05:07:08.883Z,22.93
2023-02-13T05:09:57.322Z,23.23
2023-02-13T05:12:45.837Z,23.00
2023-02-13T05:15:35.870Z,24.00
2023-02-13T05:18:24.351Z,22.73
2023-02-13T05:21:30.196Z,24.10
2023-02-13T05:24:20.517Z,23.60
2023-02-13T05:27:09.231Z,24.33
2023-02-13T05:29:57.710Z,22.83
2023-02-13T05:32:47.549Z,23.00
2023-02-13T05:35:36.041Z,23.40
2023-02-13T05:38:24.530Z,23.80
2023-02-13T05:41:13.514Z,22.63
2023-02-13T05:44:02.037Z,23.40
2023-02-13T05:46:50.537Z,21.83
2023-02-13T05:49:40.373Z,21.53
2023-02-13T05:52:28.933Z,21.47
2023-02-13T05:55:17.586Z,21.23
2023-02-13T05:58:06.067Z,22.70
2023-02-13T06:00:57.034Z,24.00
2023-02-13T06:03:45.780Z,24.33
2023-02-13T06:06:35.746Z,23.67
2023-02-13T06:09:24.303Z,23.47
2023-02-13T06:12:12.809Z,22.90
2023-02-13T06:15:01.348Z,23.47
2023-02-13T06:17:49.849Z,24.60
2023-02-13T06:20:38.619Z,22.50
2023-02-13T06:23:28.669Z,23.20
2023-02-13T06:26:17.147Z,23.80
2023-02-13T06:29:06.770Z,24.87
2023-02-13T06:31:55.327Z,24.20
2023-02-13T06:34:43.840Z,27.07
2023-02-13T06:37:32.338Z,26.60
2023-02-13T06:40:22.232Z,23.90
2023-02-13T06:43:10.752Z,26.37
2023-02-13T06:45:59.521Z,25.50
2023-02-13T06:48:47.983Z,25.90
2023-02-13T06:51:36.445Z,27.70
2023-02-13T06:54:34.541Z,27.73
2023-02-13T06:57:34.699Z,26.50
2023-02-13T07:00:26.117Z,27.00
2023-02-13T07:03:15.675Z,25.63
2023-02-13T07:06:04.271Z,27.30
2023-02-13T07:08:55.408Z,27.80
2023-02-13T07:11:43.916Z,26.97
2023-02-13T07:14:33.756Z,28.10
2023-02-13T07:17:22.237Z,25.20
2023-02-13T07:20:11.577Z,23.90
2023-02-13T07:23:00.860Z,22.13
2023-02-13T07:25:49.327Z,23.33
2023-02-13T07:28:37.844Z,22.53
2023-02-13T07:31:27.808Z,24.80
2023-02-13T07:34:16.602Z,23.63
2023-02-13T07:37:05.138Z,22.70
2023-02-13T07:39:53.621Z,24.77
2023-02-13T07:42:42.464Z,21.40
2023-02-13T07:45:31.367Z,21.47
2023-02-13T07:48:21.320Z,21.67
2023-02-13T07:51:10.422Z,21.20
2023-02-13T07:53:59.064Z,21.93
2023-02-13T07:56:47.796Z,20.97
2023-02-13T07:59:36.308Z,21.30
2023-02-13T08:02:25.027Z,20.60
2023-02-13T08:05:15.327Z,18.73
2023-02-13T08:08:04.312Z,20.50
2023-02-13T08:11:10.552Z,21.80
2023-02-13T08:13:59.041Z,21.40
2023-02-13T08:16:47.593Z,21.00
2023-02-13T08:19:36.075Z,21.30
2023-02-13T08:22:26.022Z,20.27
2023-02-13T08:25:14.592Z,21.77
2023-02-13T08:28:03.211Z,19.37
2023-02-13T08:30:51.734Z,21.20
2023-02-13T08:33:41.405Z,17.80
2023-02-13T08:36:29.988Z,17.97
2023-02-13T08:39:19.881Z,19.23
2023-02-13T08:42:08.409Z,19.40
2023-02-13T08:44:58.195Z,20.53
2023-02-13T08:47:47.363Z,19.93
2023-02-13T08:50:37.303Z,19.13
2023-02-13T08:53:26.077Z,20.73
2023-02-13T08:56:16.001Z,17.90
2023-02-13T08:59:04.600Z,21.20
2023-02-13T09:01:53.077Z,19.67
2023-02-13T09:04:41.629Z,20.40
2023-02-13T09:07:30.151Z,19.53
2023-02-13T09:10:19.321Z,20.63
2023-02-13T09:13:09.202Z,19.40
2023-02-13T09:16:00.406Z,19.97
2023-02-13T09:18:49.544Z,19.60
2023-02-13T09:21:38.057Z,20.90
2023-02-13T09:24:26.829Z,19.10
2023-02-13T09:27:15.643Z,17.90
2023-02-13T09:30:06.196Z,19.47
2023-02-13T09:32:55.518Z,20.07
2023-02-13T09:35:44.789Z,17.90
2023-02-13T09:38:33.223Z,18.83
2023-02-13T09:41:25.282Z,19.17
2023-02-13T09:44:34.036Z,18.33
2023-02-13T09:47:29.435Z,16.60
2023-02-13T09:50:23.261Z,16.57
2023-02-13T09:53:19.745Z,14.83
2023-02-13T09:56:12.296Z,15.20
2023-02-13T09:59:04.846Z,16.43
2023-02-13T10:01:54.224Z,15.60
2023-02-13T10:04:49.700Z,17.90
2023-02-13T10:07:41.683Z,17.20
2023-02-13T10:10:36.598Z,17.23
2023-02-13T10:13:32.358Z,17.33
2023-02-13T10:16:22.556Z,17.77
2023-02-13T10:19:20.368Z,18.23
2023-02-13T10:22:13.119Z,19.13
2023-02-13T10:25:04.536Z,19.43
2023-02-13T10:27:56.191Z,17.90
2023-02-13T10:30:50.465Z,20.07
2023-02-13T10:33:44.178Z,18.77
2023-02-13T10:36:35.668Z,19.93
2023-02-13T10:39:28.739Z,19.20
2023-02-13T10:42:25.944Z,20.00
2023-02-13T10:45:30.372Z,18.23
2023-02-13T10:48:31.251Z,20.23
2023-02-13T10:51:26.657Z,19.97
2023-02-13T10:54:23.771Z,18.50
2023-02-13T10:57:19.528Z,19.23
2023-02-13T11:00:12.750Z,19.03
2023-02-13T11:03:01.310Z,19.53
2023-02-13T11:05:51.293Z,21.17
2023-02-13T11:08:43.122Z,21.70
2023-02-13T11:11:36.035Z,20.80
2023-02-13T11:14:26.919Z,20.83
2023-02-13T11:17:18.585Z,20.97
2023-02-13T11:20:09.543Z,21.63
2023-02-13T11:22:58.878Z,21.20
2023-02-13T11:25:58.166Z,21.80
2023-02-13T11:28:50.276Z,22.70
2023-02-13T11:31:40.320Z,22.60
2023-02-13T11:34:30.867Z,19.73
2023-02-13T11:37:25.354Z,20.47
2023-02-13T11:40:30.775Z,19.43
2023-02-13T11:43:21.208Z,21.10
2023-02-13T11:46:17.015Z,20.40
2023-02-13T11:49:08.412Z,21.80
2023-02-13T11:51:58.258Z,20.47
2023-02-13T11:54:47.095Z,19.77
2023-02-13T11:57:37.082Z,19.37
2023-02-13T12:00:35.380Z,20.60
2023-02-13T12:03:30.079Z,20.53
2023-02-13T12:06:20.844Z,20.43
2023-02-13T12:09:14.059Z,21.60
2023-02-13T12:12:06.436Z,19.70
2023-02-13T12:14:57.126Z,18.60
2023-02-13T12:17:46.857Z,19.10
2023-02-13T12:20:43.779Z,20.80
2023-02-13T12:23:43.236Z,20.20
2023-02-13T12:26:34.566Z,19.57
2023-02-13T12:29:50.475Z,18.70
2023-02-13T12:32:48.651Z,19.23
2023-02-13T12:35:46.675Z,19.50
2023-02-13T12:38:52.517Z,17.83
2023-02-13T12:41:48.803Z,17.97
2023-02-13T12:45:08.134Z,17.53
2023-02-13T12:48:22.673Z,18.00
2023-02-13T12:51:30.309Z,20.00
2023-02-13T12:54:43.815Z,18.20
2023-02-13T12:57:44.280Z,19.27
2023-02-13T13:00:41.271Z,19.67
2023-02-13T13:03:37.958Z,19.07
2023-02-13T13:06:40.818Z,20.10
2023-02-13T13:09:44.619Z,18.17
2023-02-13T13:12:41.385Z,18.10
2023-02-13T13:15:35.053Z,19.63
2023-02-13T13:18:30.966Z,19.00
2023-02-13T13:21:27.419Z,18.97
2023-02-13T13:24:33.342Z,17.10
2023-02-13T13:27:26.603Z,19.00
2023-02-13T13:30:19.574Z,19.53
2023-02-13T13:33:15.095Z,18.83
2023-02-13T13:36:08.824Z,17.70
2023-02-13T13:39:01.933Z,19.10
2023-02-13T13:41:54.869Z,17.90
2023-02-13T13:45:13.383Z,17.20
2023-02-13T13:48:15.443Z,17.93
2023-02-13T13:51:04.251Z,17.60
2023-02-13T13:54:21.365Z,16.13
2023-02-13T13:57:12.516Z,17.00
2023-02-13T14:00:27.574Z,16.73
2023-02-13T14:03:35.661Z,17.93
2023-02-13T14:06:25.449Z,16.87
2023-02-13T14:09:38.600Z,17.03
2023-02-13T14:12:45.879Z,16.33
2023-02-13T14:15:51.586Z,16.50
2023-02-13T14:18:47.088Z,15.37
2023-02-13T14:21:35.849Z,16.73
2023-02-13T14:24:25.497Z,17.60
2023-02-13T14:27:22.304Z,17.77
2023-02-13T14:30:28.134Z,17.47
2023-02-13T14:33:25.679Z,18.47
2023-02-13T14:36:23.165Z,19.10
2023-02-13T14:39:22.167Z,17.23
2023-02-13T14:42:25.018Z,20.50
2023-02-13T14:45:16.949Z,22.10
2023-02-13T14:48:08.206Z,21.37
2023-02-13T14:50:58.096Z,21.73
2023-02-13T14:53:52.319Z,20.80
2023-02-13T14:56:40.835Z,21.23
2023-02-13T14:59:35.212Z,20.67
2023-02-13T15:02:25.130Z,20.37
2023-02-13T15:05:16.090Z,21.77
2023-02-13T15:08:07.992Z,20.80
2023-02-13T15:10:58.560Z,22.90
2023-02-13T15:13:47.222Z,20.97
2023-02-13T15:16:35.789Z,22.40
2023-02-13T15:19:24.927Z,21.13
2023-02-13T15:22:20.470Z,22.63
2023-02-13T15:25:10.003Z,22.60
2023-02-13T15:28:00.662Z,21.67
2023-02-13T15:30:57.048Z,22.23
2023-02-13T15:33:48.202Z,23.23
2023-02-13T15:36:42.015Z,23.27
2023-02-13T15:39:32.560Z,23.30
2023-02-13T15:42:21.191Z,22.57
2023-02-13T15:45:16.821Z,23.03
2023-02-13T15:48:05.815Z,27.10
2023-02-13T15:50:54.383Z,26.03
2023-02-13T15:53:52.157Z,25.60
2023-02-13T15:56:46.047Z,23.90
2023-02-13T15:59:37.742Z,24.30
2023-02-13T16:02:33.143Z,24.37
2023-02-13T16:05:37.528Z,23.57
2023-02-13T16:08:33.640Z,23.87
2023-02-13T16:11:26.970Z,21.40
2023-02-13T16:14:18.501Z,23.37
2023-02-13T16:17:08.285Z,22.83
2023-02-13T16:20:01.307Z,21.03
2023-02-13T16:22:52.266Z,22.63
2023-02-13T16:25:41.916Z,26.30
2023-02-13T16:28:32.743Z,22.97
2023-02-13T16:31:22.779Z,21.97
2023-02-13T16:34:25.026Z,23.30
2023-02-13T16:37:32.318Z,22.30
2023-02-13T16:40:41.720Z,22.27
2023-02-13T16:43:51.761Z,21.87
2023-02-13T16:46:41.282Z,24.20
2023-02-13T16:49:31.067Z,24.27
2023-02-13T16:52:23.270Z,23.67
2023-02-13T16:55:16.165Z,24.10
2023-02-13T16:58:05.445Z,23.50
2023-02-13T17:00:54.005Z,22.63
2023-02-13T17:03:42.528Z,24.30
2023-02-13T17:06:31.061Z,25.10
2023-02-13T17:09:19.825Z,23.77
2023-02-13T17:12:15.817Z,23.37
2023-02-13T17:15:05.063Z,23.53
2023-02-13T17:17:54.547Z,25.23
2023-02-13T17:20:44.782Z,23.90
2023-02-13T17:23:33.194Z,22.00
2023-02-13T17:26:21.662Z,21.87
2023-02-13T17:29:11.549Z,20.00
2023-02-13T17:32:00.141Z,21.60
2023-02-13T17:34:48.749Z,22.00
2023-02-13T17:37:37.338Z,25.03
2023-02-13T17:40:29.473Z,22.80
2023-02-13T17:43:21.604Z,22.40
2023-02-13T17:46:11.435Z,23.73
2023-02-13T17:48:59.930Z,22.30
2023-02-13T17:51:48.470Z,24.93
2023-02-13T17:54:37.019Z,24.70
2023-02-13T17:57:25.566Z,27.03
2023-02-13T18:00:14.826Z,25.90
2023-02-13T18:03:05.146Z,25.50
2023-02-13T18:05:53.682Z,26.33
2023-02-13T18:08:42.152Z,26.57
2023-02-13T18:11:31.129Z,26.93
2023-02-13T18:14:19.609Z,26.40
2023-02-13T18:17:08.240Z,26.67
2023-02-13T18:19:58.279Z,31.63
2023-02-13T18:22:46.883Z,26.77
2023-02-13T18:25:36.844Z,26.37
2023-02-13T18:28:25.306Z,27.10
2023-02-13T18:31:14.313Z,28.50
2023-02-13T18:34:02.859Z,29.77
2023-02-13T18:36:52.706Z,38.00
2023-02-13T18:39:41.338Z,38.80
2023-02-13T18:42:29.848Z,37.63
2023-02-13T18:45:18.576Z,37.70
2023-02-13T18:48:09.290Z,38.83
2023-02-13T18:51:00.375Z,33.63
2023-02-13T18:53:50.399Z,35.27
2023-02-13T18:56:38.893Z,35.43
2023-02-13T18:59:27.556Z,32.00
2023-02-13T19:02:16.062Z,31.37
2023-02-13T19:05:06.256Z,30.10
2023-02-13T19:07:54.739Z,26.97
2023-02-13T19:10:44.877Z,25.63
2023-02-13T19:13:34.112Z,30.70
2023-02-13T19:16:23.324Z,28.23
2023-02-13T19:19:11.820Z,26.97
2023-02-13T19:22:00.345Z,22.97
2023-02-13T19:24:48.892Z,26.17
2023-02-13T19:27:39.110Z,25.07
2023-02-13T19:30:27.665Z,28.60
2023-02-13T19:33:16.170Z,27.17
2023-02-13T19:36:08.200Z,29.00
2023-02-13T19:38:58.240Z,28.90
2023-02-13T19:41:46.799Z,28.90
2023-02-13T19:44:36.888Z,28.07
2023-02-13T19:47:25.459Z,26.17
2023-02-13T19:50:16.566Z,24.43
2023-02-13T19:53:10.639Z,25.47
2023-02-13T19:55:59.821Z,25.37
2023-02-13T19:58:48.363Z,26.27
2023-02-13T20:01:38.288Z,24.73
2023-02-13T20:04:26.939Z,25.30
2023-02-13T20:07:18.475Z,25.50
2023-02-13T20:10:09.621Z,25.87
2023-02-13T20:12:58.296Z,26.70
2023-02-13T20:15:46.816Z,25.90
2023-02-13T20:18:37.175Z,25.60
2023-02-13T20:21:26.210Z,27.37
2023-02-13T20:24:14.692Z,28.93
2023-02-13T20:27:03.179Z,29.20
2023-02-13T20:29:58.846Z,31.80
2023-02-13T20:32:54.906Z,28.83
2023-02-13T20:35:44.779Z,30.07
2023-02-13T20:38:33.285Z,30.03
2023-02-13T20:41:23.035Z,27.73
2023-02-13T20:44:13.249Z,31.23
2023-02-13T20:47:01.720Z,28.73
2023-02-13T20:49:50.252Z,26.13
2023-02-13T20:52:40.884Z,26.20
2023-02-13T20:55:29.400Z,26.70
2023-02-13T20:58:17.976Z,38.90
2023-02-13T21:01:12.255Z,35.67
2023-02-13T21:04:01.343Z,34.03
2023-02-13T21:06:49.938Z,27.67
2023-02-13T21:09:39.864Z,27.00
2023-02-13T21:12:28.376Z,25.07
2023-02-13T21:15:18.793Z,23.10
2023-02-13T21:18:07.455Z,26.20
2023-02-13T21:20:57.412Z,25.47
2023-02-13T21:23:46.452Z,23.13
2023-02-13T21:26:36.826Z,25.77
2023-02-13T21:29:25.371Z,25.70
2023-02-13T21:32:14.061Z,24.63
2023-02-13T21:35:02.588Z,22.70
2023-02-13T21:37:51.060Z,22.00
2023-02-13T21:40:40.711Z,25.30
2023-02-13T21:43:30.541Z,28.50
2023-02-13T21:46:21.121Z,40.50
2023-02-13T21:49:12.934Z,29.87
2023-02-13T21:52:01.427Z,26.17
2023-02-13T21:54:49.940Z,25.73
2023-02-13T21:57:38.484Z,24.37
2023-02-13T22:00:28.335Z,23.77
2023-02-13T22:03:16.816Z,22.03
2023-02-13T22:06:05.531Z,19.37
2023-02-13T22:08:57.361Z,22.10
2023-02-13T22:11:45.863Z,22.43
2023-02-13T22:14:34.313Z,21.97
2023-02-13T22:17:24.155Z,19.60
2023-02-13T22:20:13.340Z,20.40
2023-02-13T22:23:01.838Z,20.60
2023-02-13T22:25:50.583Z,21.23
2023-02-13T22:28:39.072Z,21.00
2023-02-13T22:31:27.783Z,18.30
2023-02-13T22:34:17.644Z,21.17
2023-02-13T22:37:06.374Z,21.67
2023-02-13T22:39:54.834Z,22.90
2023-02-13T22:42:43.339Z,21.03
2023-02-13T22:45:32.296Z,25.43
2023-02-13T22:48:20.727Z,23.90
2023-02-13T22:51:12.155Z,29.10
2023-02-13T22:54:01.124Z,27.17
2023-02-13T22:56:49.718Z,26.50
2023-02-13T22:59:40.143Z,29.57
2023-02-13T23:02:28.826Z,29.90
2023-02-13T23:05:17.750Z,26.87
2023-02-13T23:08:07.681Z,27.63
2023-02-13T23:11:13.606Z,26.03
2023-02-13T23:14:02.272Z,29.33
2023-02-13T23:17:08.403Z,25.93
2023-02-13T23:19:56.878Z,26.00
2023-02-13T23:22:45.374Z,24.27
2023-02-13T23:25:35.603Z,25.37
2023-02-13T23:28:24.071Z,24.80
2023-02-13T23:31:12.921Z,31.80
2023-02-13T23:34:01.529Z,28.33
2023-02-13T23:36:50.363Z,30.10
2023-02-13T23:39:38.811Z,33.67
2023-02-13T23:42:28.663Z,25.40
2023-02-13T23:45:17.281Z,26.37
2023-02-13T23:48:06.018Z,25.23
2023-02-13T23:50:54.454Z,28.83
2023-02-13T23:53:42.868Z,24.10
2023-02-13T23:56:31.582Z,26.13
2023-02-13T23:59:22.428Z,25.97
